sensor_id;sensor_type;location;lat;lon;timestamp;pressure;altitude;pressure_sealevel;temperature;humidity
23619;BME280;18207;32.078;34.818;2024-01-16T00:02:29;101799.78;;;21.24;44.40
23619;BME280;18207;32.078;34.818;2024-01-16T00:04:59;101795.34;;;21.23;44.45
23619;BME280;18207;32.078;34.818;2024-01-16T00:07:28;101794.53;;;21.23;43.81
23619;BME280;18207;32.078;34.818;2024-01-16T00:10:02;101801.25;;;21.22;44.16
23619;BME280;18207;32.078;34.818;2024-01-16T00:12:31;101798.75;;;21.20;44.44
23619;BME280;18207;32.078;34.818;2024-01-16T00:15:01;101796.28;;;21.19;43.75
23619;BME280;18207;32.078;34.818;2024-01-16T00:17:31;101792.66;;;21.18;44.17
23619;BME280;18207;32.078;34.818;2024-01-16T00:20:01;101793.28;;;21.15;43.86
23619;BME280;18207;32.078;34.818;2024-01-16T00:22:33;101797.22;;;21.14;43.89
23619;BME280;18207;32.078;34.818;2024-01-16T00:25:06;101800.03;;;21.14;44.31
23619;BME280;18207;32.078;34.818;2024-01-16T00:27:35;101798.69;;;21.12;43.87
23619;BME280;18207;32.078;34.818;2024-01-16T00:30:07;101798.16;;;21.10;43.70
23619;BME280;18207;32.078;34.818;2024-01-16T00:32:37;101801.28;;;21.08;44.10
23619;BME280;18207;32.078;34.818;2024-01-16T00:35:08;101797.13;;;21.06;43.77
23619;BME280;18207;32.078;34.818;2024-01-16T00:37:38;101801.06;;;21.05;43.79
23619;BME280;18207;32.078;34.818;2024-01-16T00:40:11;101805.03;;;21.04;43.75
23619;BME280;18207;32.078;34.818;2024-01-16T00:42:41;101808.44;;;21.01;43.99
23619;BME280;18207;32.078;34.818;2024-01-16T00:45:11;101805.13;;;20.99;44.18
23619;BME280;18207;32.078;34.818;2024-01-16T00:47:40;101797.06;;;20.97;44.02
23619;BME280;18207;32.078;34.818;2024-01-16T00:50:10;101801.81;;;20.97;43.66
23619;BME280;18207;32.078;34.818;2024-01-16T00:52:40;101805.72;;;20.96;43.75
23619;BME280;18207;32.078;34.818;2024-01-16T00:55:12;101804.91;;;20.95;43.91
23619;BME280;18207;32.078;34.818;2024-01-16T00:57:42;101804.91;;;20.95;44.12
23619;BME280;18207;32.078;34.818;2024-01-16T01:00:12;101806.91;;;20.95;44.11
23619;BME280;18207;32.078;34.818;2024-01-16T01:02:42;101801.31;;;20.95;43.65
23619;BME280;18207;32.078;34.818;2024-01-16T01:05:12;101800.47;;;20.94;43.63
23619;BME280;18207;32.078;34.818;2024-01-16T01:07:42;101796.88;;;20.94;43.69
23619;BME280;18207;32.078;34.818;2024-01-16T01:10:13;101802.44;;;20.94;43.75
23619;BME280;18207;32.078;34.818;2024-01-16T01:12:43;101793.22;;;20.93;43.55
23619;BME280;18207;32.078;34.818;2024-01-16T01:15:13;101792.41;;;20.93;43.67
23619;BME280;18207;32.078;34.818;2024-01-16T01:17:43;101796.34;;;20.92;43.74
23619;BME280;18207;32.078;34.818;2024-01-16T01:20:13;101795.50;;;20.91;43.58
23619;BME280;18207;32.078;34.818;2024-01-16T01:22:44;101789.91;;;20.91;44.23
23619;BME280;18207;32.078;34.818;2024-01-16T01:25:16;101800.28;;;20.91;43.86
23619;BME280;18207;32.078;34.818;2024-01-16T01:27:46;101798.63;;;20.90;43.65
23619;BME280;18207;32.078;34.818;2024-01-16T01:30:15;101801.41;;;20.90;44.00
23619;BME280;18207;32.078;34.818;2024-01-16T01:32:45;101807.00;;;20.90;43.71
23619;BME280;18207;32.078;34.818;2024-01-16T01:35:17;101802.22;;;20.90;43.96
23619;BME280;18207;32.078;34.818;2024-01-16T01:37:47;101801.41;;;20.90;44.24
23619;BME280;18207;32.078;34.818;2024-01-16T01:40:19;101802.75;;;20.92;44.31
23619;BME280;18207;32.078;34.818;2024-01-16T01:42:49;101799.94;;;20.92;43.80
23619;BME280;18207;32.078;34.818;2024-01-16T01:45:18;101797.16;;;20.92;43.89
23619;BME280;18207;32.078;34.818;2024-01-16T01:47:50;101793.84;;;20.90;43.87
23619;BME280;18207;32.078;34.818;2024-01-16T01:50:20;101789.41;;;20.89;44.01
23619;BME280;18207;32.078;34.818;2024-01-16T01:52:50;101801.72;;;20.88;44.38
23619;BME280;18207;32.078;34.818;2024-01-16T01:55:21;101798.09;;;20.88;44.08
23619;BME280;18207;32.078;34.818;2024-01-16T01:57:51;101787.75;;;20.88;43.97
23619;BME280;18207;32.078;34.818;2024-01-16T02:00:21;101779.38;;;20.88;43.89
23619;BME280;18207;32.078;34.818;2024-01-16T02:02:51;101779.38;;;20.88;44.05
23619;BME280;18207;32.078;34.818;2024-01-16T02:05:21;101786.63;;;20.89;44.45
23619;BME280;18207;32.078;34.818;2024-01-16T02:07:52;101795.81;;;20.90;44.05
23619;BME280;18207;32.078;34.818;2024-01-16T02:10:24;101787.13;;;20.91;44.43
23619;BME280;18207;32.078;34.818;2024-01-16T02:12:54;101794.34;;;20.92;44.30
23619;BME280;18207;32.078;34.818;2024-01-16T02:15:24;101792.94;;;20.95;44.50
23619;BME280;18207;32.078;34.818;2024-01-16T02:17:53;101789.50;;;20.98;44.03
23619;BME280;18207;32.078;34.818;2024-01-16T02:20:23;101793.63;;;21.00;44.48
23619;BME280;18207;32.078;34.818;2024-01-16T02:22:55;101786.28;;;21.04;44.25
23619;BME280;18207;32.078;34.818;2024-01-16T02:25:28;101787.59;;;21.07;43.89
23619;BME280;18207;32.078;34.818;2024-01-16T02:28:00;101780.06;;;21.07;44.18
23619;BME280;18207;32.078;34.818;2024-01-16T02:30:29;101769.69;;;21.08;43.93
23619;BME280;18207;32.078;34.818;2024-01-16T02:32:59;101771.69;;;21.07;43.79
23619;BME280;18207;32.078;34.818;2024-01-16T02:35:29;101784.00;;;21.06;43.84
23619;BME280;18207;32.078;34.818;2024-01-16T02:37:59;101780.69;;;21.04;44.21
23619;BME280;18207;32.078;34.818;2024-01-16T02:40:30;101782.66;;;21.04;43.74
23619;BME280;18207;32.078;34.818;2024-01-16T02:43:00;101774.91;;;21.01;43.67
23619;BME280;18207;32.078;34.818;2024-01-16T02:45:30;101774.69;;;20.97;43.96
23619;BME280;18207;32.078;34.818;2024-01-16T02:48:00;101767.78;;;20.95;43.65
23619;BME280;18207;32.078;34.818;2024-01-16T02:50:31;101772.84;;;20.93;43.50
23619;BME280;18207;32.078;34.818;2024-01-16T02:53:01;101774.28;;;20.90;43.47
23619;BME280;18207;32.078;34.818;2024-01-16T02:55:33;101773.47;;;20.90;43.41
23619;BME280;18207;32.078;34.818;2024-01-16T02:58:03;101769.34;;;20.87;43.71
23619;BME280;18207;32.078;34.818;2024-01-16T03:00:33;101779.66;;;20.87;43.90
23619;BME280;18207;32.078;34.818;2024-01-16T03:03:03;101778.84;;;20.86;43.37
23619;BME280;18207;32.078;34.818;2024-01-16T03:05:33;101773.59;;;20.85;43.28
23619;BME280;18207;32.078;34.818;2024-01-16T03:08:03;101782.28;;;20.83;43.83
23619;BME280;18207;32.078;34.818;2024-01-16T03:10:35;101783.41;;;20.82;43.24
23619;BME280;18207;32.078;34.818;2024-01-16T03:13:11;101784.53;;;20.81;43.76
23619;BME280;18207;32.078;34.818;2024-01-16T03:15:41;101782.06;;;20.80;43.67
23619;BME280;18207;32.078;34.818;2024-01-16T03:18:11;101790.78;;;20.78;43.22
23619;BME280;18207;32.078;34.818;2024-01-16T03:20:41;101796.38;;;20.78;43.28
23619;BME280;18207;32.078;34.818;2024-01-16T03:23:11;101789.13;;;20.77;43.10
23619;BME280;18207;32.078;34.818;2024-01-16T03:25:42;101795.50;;;20.78;43.08
23619;BME280;18207;32.078;34.818;2024-01-16T03:28:11;101805.03;;;20.77;43.17
23619;BME280;18207;32.078;34.818;2024-01-16T03:30:45;101791.34;;;20.75;43.23
23619;BME280;18207;32.078;34.818;2024-01-16T03:33:15;101796.13;;;20.75;43.52
23619;BME280;18207;32.078;34.818;2024-01-16T03:35:45;101795.28;;;20.74;43.16
23619;BME280;18207;32.078;34.818;2024-01-16T03:38:16;101801.72;;;20.75;43.54
23619;BME280;18207;32.078;34.818;2024-01-16T03:40:47;101814.84;;;20.74;43.70
23619;BME280;18207;32.078;34.818;2024-01-16T03:43:17;101809.56;;;20.73;43.60
23619;BME280;18207;32.078;34.818;2024-01-16T03:45:47;101812.03;;;20.74;43.40
23619;BME280;18207;32.078;34.818;2024-01-16T03:48:17;101830.47;;;20.75;43.62
23619;BME280;18207;32.078;34.818;2024-01-16T03:50:46;101819.28;;;20.75;43.38
23619;BME280;18207;32.078;34.818;2024-01-16T03:53:16;101823.75;;;20.76;43.06
23619;BME280;18207;32.078;34.818;2024-01-16T03:55:48;101825.19;;;20.74;43.66
23619;BME280;18207;32.078;34.818;2024-01-16T03:58:19;101829.13;;;20.73;43.19
23619;BME280;18207;32.078;34.818;2024-01-16T04:00:48;101828.28;;;20.72;42.90
23619;BME280;18207;32.078;34.818;2024-01-16T04:03:19;101834.19;;;20.71;43.44
23619;BME280;18207;32.078;34.818;2024-01-16T04:05:48;101824.16;;;20.70;43.44
23619;BME280;18207;32.078;34.818;2024-01-16T04:08:18;101826.13;;;20.69;43.01
23619;BME280;18207;32.078;34.818;2024-01-16T04:10:50;101837.31;;;20.69;43.29
23619;BME280;18207;32.078;34.818;2024-01-16T04:13:19;101838.44;;;20.68;43.00
23619;BME280;18207;32.078;34.818;2024-01-16T04:15:49;101845.16;;;20.67;42.70
23619;BME280;18207;32.078;34.818;2024-01-16T04:18:20;101849.09;;;20.66;42.79
23619;BME280;18207;32.078;34.818;2024-01-16T04:20:50;101837.91;;;20.66;42.89
23619;BME280;18207;32.078;34.818;2024-01-16T04:23:20;101842.97;;;20.64;42.92
23619;BME280;18207;32.078;34.818;2024-01-16T04:25:51;101839.38;;;20.64;42.77
23619;BME280;18207;32.078;34.818;2024-01-16T04:28:21;101842.44;;;20.63;42.99
23619;BME280;18207;32.078;34.818;2024-01-16T04:30:51;101839.16;;;20.61;43.18
23619;BME280;18207;32.078;34.818;2024-01-16T04:33:21;101839.44;;;20.59;43.12
23619;BME280;18207;32.078;34.818;2024-01-16T04:35:51;101841.44;;;20.59;42.97
23619;BME280;18207;32.078;34.818;2024-01-16T04:38:21;101844.50;;;20.57;42.81
23619;BME280;18207;32.078;34.818;2024-01-16T04:40:53;101857.97;;;20.55;42.63
23619;BME280;18207;32.078;34.818;2024-01-16T04:43:23;101864.69;;;20.54;42.99
23619;BME280;18207;32.078;34.818;2024-01-16T04:45:53;101871.41;;;20.53;42.96
23619;BME280;18207;32.078;34.818;2024-01-16T04:48:23;101880.94;;;20.52;42.54
23619;BME280;18207;32.078;34.818;2024-01-16T04:50:53;101873.69;;;20.51;42.78
23619;BME280;18207;32.078;34.818;2024-01-16T04:53:22;101877.63;;;20.50;42.89
23619;BME280;18207;32.078;34.818;2024-01-16T04:55:54;101878.47;;;20.51;43.06
23619;BME280;18207;32.078;34.818;2024-01-16T04:58:24;101875.94;;;20.49;43.06
23619;BME280;18207;32.078;34.818;2024-01-16T05:00:53;101878.75;;;20.49;43.17
23619;BME280;18207;32.078;34.818;2024-01-16T05:03:23;101883.50;;;20.49;43.23
23619;BME280;18207;32.078;34.818;2024-01-16T05:05:52;101880.72;;;20.49;43.25
23619;BME280;18207;32.078;34.818;2024-01-16T05:08:24;101880.72;;;20.49;43.25
23619;BME280;18207;32.078;34.818;2024-01-16T05:10:55;101890.22;;;20.48;43.00
23619;BME280;18207;32.078;34.818;2024-01-16T05:13:25;101888.56;;;20.47;42.65
23619;BME280;18207;32.078;34.818;2024-01-16T05:15:55;101877.72;;;20.45;42.73
23619;BME280;18207;32.078;34.818;2024-01-16T05:18:24;101884.44;;;20.44;43.05
23619;BME280;18207;32.078;34.818;2024-01-16T05:20:55;101884.72;;;20.43;42.62
23619;BME280;18207;32.078;34.818;2024-01-16T05:23:27;101893.09;;;20.43;43.14
23619;BME280;18207;32.078;34.818;2024-01-16T05:25:59;101891.44;;;20.42;42.76
23619;BME280;18207;32.078;34.818;2024-01-16T05:28:28;101899.53;;;20.43;43.00
23619;BME280;18207;32.078;34.818;2024-01-16T05:30:59;101902.00;;;20.45;43.32
23619;BME280;18207;32.078;34.818;2024-01-16T05:33:29;101899.22;;;20.45;42.89
23619;BME280;18207;32.078;34.818;2024-01-16T05:36:00;101895.28;;;20.46;43.11
23619;BME280;18207;32.078;34.818;2024-01-16T05:38:30;101904.19;;;20.48;42.80
23619;BME280;18207;32.078;34.818;2024-01-16T05:41:04;101903.88;;;20.49;42.94
23619;BME280;18207;32.078;34.818;2024-01-16T05:43:34;101911.97;;;20.51;43.27
23619;BME280;18207;32.078;34.818;2024-01-16T05:46:04;101906.88;;;20.53;42.77
23619;BME280;18207;32.078;34.818;2024-01-16T05:48:33;101915.78;;;20.55;42.93
23619;BME280;18207;32.078;34.818;2024-01-16T05:51:04;101918.25;;;20.56;43.21
23619;BME280;18207;32.078;34.818;2024-01-16T05:53:33;101911.25;;;20.59;43.30
23619;BME280;18207;32.078;34.818;2024-01-16T05:56:06;101913.72;;;20.60;43.17
23619;BME280;18207;32.078;34.818;2024-01-16T05:58:36;101912.28;;;20.63;43.23
23619;BME280;18207;32.078;34.818;2024-01-16T06:01:19;101911.16;;;20.63;43.22
23619;BME280;18207;32.078;34.818;2024-01-16T06:03:49;101916.94;;;20.67;43.18
23619;BME280;18207;32.078;34.818;2024-01-16T06:06:19;101909.09;;;20.69;42.81
23619;BME280;18207;32.078;34.818;2024-01-16T06:08:48;101918.50;;;20.73;42.90
23619;BME280;18207;32.078;34.818;2024-01-16T06:11:30;101922.38;;;20.77;43.21
23619;BME280;18207;32.078;34.818;2024-01-16T06:14:00;101922.56;;;20.80;43.18
23619;BME280;18207;32.078;34.818;2024-01-16T06:16:30;101928.06;;;20.85;42.96
23619;BME280;18207;32.078;34.818;2024-01-16T06:19:00;101922.38;;;20.90;42.99
23619;BME280;18207;32.078;34.818;2024-01-16T06:21:31;101929.22;;;20.98;43.03
23619;BME280;18207;32.078;34.818;2024-01-16T06:24:01;101922.59;;;21.07;42.86
23619;BME280;18207;32.078;34.818;2024-01-16T06:26:33;101929.13;;;21.16;42.98
23619;BME280;18207;32.078;34.818;2024-01-16T06:29:03;101932.84;;;21.25;43.51
23619;BME280;18207;32.078;34.818;2024-01-16T06:31:34;101928.19;;;21.34;43.24
23619;BME280;18207;32.078;34.818;2024-01-16T06:34:04;101936.03;;;21.46;43.52
23619;BME280;18207;32.078;34.818;2024-01-16T06:36:34;101930.25;;;21.55;43.21
23619;BME280;18207;32.078;34.818;2024-01-16T06:39:04;101936.47;;;21.66;43.20
23619;BME280;18207;32.078;34.818;2024-01-16T06:41:36;101936.41;;;21.79;43.64
23619;BME280;18207;32.078;34.818;2024-01-16T06:44:06;101943.72;;;21.89;43.18
23619;BME280;18207;32.078;34.818;2024-01-16T06:46:36;101938.75;;;21.99;43.36
23619;BME280;18207;32.078;34.818;2024-01-16T06:49:05;101944.63;;;22.11;43.36
23619;BME280;18207;32.078;34.818;2024-01-16T06:51:35;101956.03;;;22.23;43.14
23619;BME280;18207;32.078;34.818;2024-01-16T06:54:05;101961.13;;;22.35;42.98
23619;BME280;18207;32.078;34.818;2024-01-16T06:56:36;101957.75;;;22.46;42.90
23619;BME280;18207;32.078;34.818;2024-01-16T06:59:06;101954.34;;;22.57;43.26
23619;BME280;18207;32.078;34.818;2024-01-16T07:01:38;101949.00;;;22.69;42.95
23619;BME280;18207;32.078;34.818;2024-01-16T07:04:08;101950.38;;;22.80;43.14
23619;BME280;18207;32.078;34.818;2024-01-16T07:06:38;101950.94;;;22.91;43.21
23619;BME280;18207;32.078;34.818;2024-01-16T07:09:08;101948.34;;;23.03;42.93
23619;BME280;18207;32.078;34.818;2024-01-16T07:11:40;101944.13;;;23.14;43.10
23619;BME280;18207;32.078;34.818;2024-01-16T07:14:12;101952.75;;;23.26;42.92
23619;BME280;18207;32.078;34.818;2024-01-16T07:16:42;101952.13;;;23.37;43.01
23619;BME280;18207;32.078;34.818;2024-01-16T07:19:12;101954.34;;;23.48;43.24
23619;BME280;18207;32.078;34.818;2024-01-16T07:21:42;101960.44;;;23.59;42.70
23619;BME280;18207;32.078;34.818;2024-01-16T07:24:12;101953.72;;;23.68;42.95
23619;BME280;18207;32.078;34.818;2024-01-16T07:26:45;101948.13;;;23.77;42.72
23619;BME280;18207;32.078;34.818;2024-01-16T07:29:14;101948.50;;;23.84;42.53
23619;BME280;18207;32.078;34.818;2024-01-16T07:31:44;101943.19;;;23.91;42.66
23619;BME280;18207;32.078;34.818;2024-01-16T07:34:14;101951.94;;;23.98;42.63
23619;BME280;18207;32.078;34.818;2024-01-16T07:36:48;101952.28;;;24.05;42.11
23619;BME280;18207;32.078;34.818;2024-01-16T07:39:17;101952.63;;;24.12;42.67
23619;BME280;18207;32.078;34.818;2024-01-16T07:41:49;101952.94;;;24.18;42.40
23619;BME280;18207;32.078;34.818;2024-01-16T07:44:19;101944.84;;;24.25;42.54
23619;BME280;18207;32.078;34.818;2024-01-16T07:46:49;101939.22;;;24.34;42.59
23619;BME280;18207;32.078;34.818;2024-01-16T07:49:18;101944.84;;;24.42;42.70
23619;BME280;18207;32.078;34.818;2024-01-16T07:51:48;101940.88;;;24.52;42.38
23619;BME280;18207;32.078;34.818;2024-01-16T07:54:18;101937.22;;;24.60;42.42
23619;BME280;18207;32.078;34.818;2024-01-16T07:56:50;101933.09;;;24.66;42.36
23619;BME280;18207;32.078;34.818;2024-01-16T07:59:19;101928.13;;;24.71;42.15
23619;BME280;18207;32.078;34.818;2024-01-16T08:01:49;101930.38;;;24.78;42.30
23619;BME280;18207;32.078;34.818;2024-01-16T08:04:19;101925.41;;;24.83;42.31
23619;BME280;18207;32.078;34.818;2024-01-16T08:06:49;101926.06;;;24.89;41.90
23619;BME280;18207;32.078;34.818;2024-01-16T08:09:18;101922.22;;;24.93;41.95
23619;BME280;18207;32.078;34.818;2024-01-16T08:11:49;101923.22;;;24.97;42.00
23619;BME280;18207;32.078;34.818;2024-01-16T08:14:19;101914.94;;;25.01;41.78
23619;BME280;18207;32.078;34.818;2024-01-16T08:16:49;101910.28;;;25.05;41.99
23619;BME280;18207;32.078;34.818;2024-01-16T08:19:19;101906.47;;;25.09;42.05
23619;BME280;18207;32.078;34.818;2024-01-16T08:21:49;101908.78;;;25.15;41.97
23619;BME280;18207;32.078;34.818;2024-01-16T08:24:18;101898.13;;;25.21;42.02
23619;BME280;18207;32.078;34.818;2024-01-16T08:26:49;101899.25;;;25.28;41.75
23619;BME280;18207;32.078;34.818;2024-01-16T08:29:19;101891.13;;;25.35;41.75
23619;BME280;18207;32.078;34.818;2024-01-16T08:31:50;101891.88;;;25.44;41.80
23619;BME280;18207;32.078;34.818;2024-01-16T08:34:20;101897.44;;;25.53;41.54
23619;BME280;18207;32.078;34.818;2024-01-16T08:36:50;101891.75;;;25.61;41.54
23619;BME280;18207;32.078;34.818;2024-01-16T08:39:25;101885.25;;;25.69;41.56
23619;BME280;18207;32.078;34.818;2024-01-16T08:41:57;101885.53;;;25.76;41.41
23619;BME280;18207;32.078;34.818;2024-01-16T08:44:27;101874.88;;;25.82;41.37
23619;BME280;18207;32.078;34.818;2024-01-16T08:46:57;101864.25;;;25.87;41.25
23619;BME280;18207;32.078;34.818;2024-01-16T08:49:27;101869.31;;;25.94;41.25
23619;BME280;18207;32.078;34.818;2024-01-16T08:51:57;101867.94;;;25.99;41.27
23619;BME280;18207;32.078;34.818;2024-01-16T08:54:27;101859.28;;;26.04;41.03
23619;BME280;18207;32.078;34.818;2024-01-16T08:56:58;101862.34;;;26.11;41.06
23619;BME280;18207;32.078;34.818;2024-01-16T08:59:28;101860.16;;;26.17;40.95
23619;BME280;18207;32.078;34.818;2024-01-16T09:01:57;101851.50;;;26.22;40.75
23619;BME280;18207;32.078;34.818;2024-01-16T09:04:27;101846.78;;;26.26;40.61
23619;BME280;18207;32.078;34.818;2024-01-16T09:06:57;101842.47;;;26.28;40.63
23619;BME280;18207;32.078;34.818;2024-01-16T09:09:27;101834.84;;;26.29;40.45
23619;BME280;18207;32.078;34.818;2024-01-16T09:11:58;101828.84;;;26.30;40.29
23619;BME280;18207;32.078;34.818;2024-01-16T09:14:28;101824.38;;;26.29;40.55
23619;BME280;18207;32.078;34.818;2024-01-16T09:16:58;101813.44;;;26.28;40.01
23619;BME280;18207;32.078;34.818;2024-01-16T09:19:27;101812.63;;;26.27;40.44
23619;BME280;18207;32.078;34.818;2024-01-16T09:21:57;101812.50;;;26.24;40.26
23619;BME280;18207;32.078;34.818;2024-01-16T09:24:27;101810.88;;;26.23;39.95
23619;BME280;18207;32.078;34.818;2024-01-16T09:27:00;101806.41;;;26.22;40.12
23619;BME280;18207;32.078;34.818;2024-01-16T09:29:34;101803.09;;;26.20;39.97
23619;BME280;18207;32.078;34.818;2024-01-16T09:32:05;101798.28;;;26.20;40.18
23619;BME280;18207;32.078;34.818;2024-01-16T09:34:35;101792.63;;;26.20;40.01
23619;BME280;18207;32.078;34.818;2024-01-16T09:37:05;101785.03;;;26.21;40.16
23619;BME280;18207;32.078;34.818;2024-01-16T09:39:35;101775.84;;;26.24;40.15
23619;BME280;18207;32.078;34.818;2024-01-16T09:42:07;101778.47;;;26.29;40.01
23619;BME280;18207;32.078;34.818;2024-01-16T09:44:37;101776.25;;;26.34;40.24
23619;BME280;18207;32.078;34.818;2024-01-16T09:47:08;101772.38;;;26.39;39.98
23619;BME280;18207;32.078;34.818;2024-01-16T09:49:40;101768.53;;;26.43;39.84
23619;BME280;18207;32.078;34.818;2024-01-16T09:52:11;101763.38;;;26.45;39.76
23619;BME280;18207;32.078;34.818;2024-01-16T09:54:41;101765.47;;;26.48;39.61
23619;BME280;18207;32.078;34.818;2024-01-16T09:57:13;101754.19;;;26.48;39.41
23619;BME280;18207;32.078;34.818;2024-01-16T09:59:45;101761.34;;;26.46;39.31
23619;BME280;18207;32.078;34.818;2024-01-16T10:02:15;101760.56;;;26.45;39.56
23619;BME280;18207;32.078;34.818;2024-01-16T10:04:47;101745.16;;;26.43;39.45
23619;BME280;18207;32.078;34.818;2024-01-16T10:07:19;101736.72;;;26.43;39.59
23619;BME280;18207;32.078;34.818;2024-01-16T10:09:56;101737.88;;;26.42;39.40
23619;BME280;18207;32.078;34.818;2024-01-16T10:12:28;101736.22;;;26.41;39.46
23619;BME280;18207;32.078;34.818;2024-01-16T10:14:58;101724.44;;;26.39;39.54
23619;BME280;18207;32.078;34.818;2024-01-16T10:17:39;101732.91;;;26.39;39.36
23619;BME280;18207;32.078;34.818;2024-01-16T10:20:11;101718.31;;;26.37;39.39
23619;BME280;18207;32.078;34.818;2024-01-16T10:22:53;101715.88;;;26.35;39.20
23619;BME280;18207;32.078;34.818;2024-01-16T10:25:24;101718.56;;;26.32;39.41
23619;BME280;18207;32.078;34.818;2024-01-16T10:28:05;101716.09;;;26.30;39.27
23619;BME280;18207;32.078;34.818;2024-01-16T10:30:38;101708.34;;;26.27;39.39
23619;BME280;18207;32.078;34.818;2024-01-16T10:33:17;101703.88;;;26.26;39.35
23619;BME280;18207;32.078;34.818;2024-01-16T10:35:47;101702.56;;;26.24;39.45
23619;BME280;18207;32.078;34.818;2024-01-16T10:38:21;101702.94;;;26.22;39.24
23619;BME280;18207;32.078;34.818;2024-01-16T10:41:06;101698.47;;;26.21;38.97
23619;BME280;18207;32.078;34.818;2024-01-16T10:43:38;101689.53;;;26.19;39.00
23619;BME280;18207;32.078;34.818;2024-01-16T10:46:13;101688.72;;;26.19;39.33
23619;BME280;18207;32.078;34.818;2024-01-16T10:48:45;101681.81;;;26.16;39.35
23619;BME280;18207;32.078;34.818;2024-01-16T10:51:16;101678.16;;;26.16;39.31
23619;BME280;18207;32.078;34.818;2024-01-16T10:53:47;101674.84;;;26.14;39.27
23619;BME280;18207;32.078;34.818;2024-01-16T10:56:19;101671.22;;;26.13;39.28
23619;BME280;18207;32.078;34.818;2024-01-16T10:59:04;101669.56;;;26.12;39.34
23619;BME280;18207;32.078;34.818;2024-01-16T11:01:47;101665.84;;;26.08;39.21
23619;BME280;18207;32.078;34.818;2024-01-16T11:04:20;101669.34;;;26.05;39.17
23619;BME280;18207;32.078;34.818;2024-01-16T11:06:52;101671.69;;;26.03;39.14
23619;BME280;18207;32.078;34.818;2024-01-16T11:09:25;101658.75;;;26.02;39.24
23619;BME280;18207;32.078;34.818;2024-01-16T11:11:55;101656.31;;;26.01;39.18
23619;BME280;18207;32.078;34.818;2024-01-16T11:14:31;101654.66;;;26.00;39.18
23619;BME280;18207;32.078;34.818;2024-01-16T11:17:03;101659.00;;;25.98;39.19
23619;BME280;18207;32.078;34.818;2024-01-16T11:19:34;101657.69;;;25.95;39.24
23619;BME280;18207;32.078;34.818;2024-01-16T11:22:24;101651.59;;;25.93;39.24
23619;BME280;18207;32.078;34.818;2024-01-16T11:25:10;101651.94;;;25.92;39.16
23619;BME280;18207;32.078;34.818;2024-01-16T11:27:41;101654.28;;;25.90;39.17
23619;BME280;18207;32.078;34.818;2024-01-16T11:30:29;101646.66;;;25.90;39.25
23619;BME280;18207;32.078;34.818;2024-01-16T11:33:00;101656.66;;;25.88;39.02
23619;BME280;18207;32.078;34.818;2024-01-16T11:35:34;101659.78;;;25.86;39.02
23619;BME280;18207;32.078;34.818;2024-01-16T11:38:06;101657.34;;;25.85;39.04
23619;BME280;18207;32.078;34.818;2024-01-16T11:40:37;101656.84;;;25.83;39.11
23619;BME280;18207;32.078;34.818;2024-01-16T11:43:36;101641.13;;;25.82;39.11
23619;BME280;18207;32.078;34.818;2024-01-16T11:46:07;101639.84;;;25.79;39.24
23619;BME280;18207;32.078;34.818;2024-01-16T11:48:37;101629.75;;;25.78;39.13
23619;BME280;18207;32.078;34.818;2024-01-16T11:51:24;101626.13;;;25.78;39.20
23619;BME280;18207;32.078;34.818;2024-01-16T11:53:54;101616.31;;;25.75;39.58
23619;BME280;18207;32.078;34.818;2024-01-16T11:57:19;101613.88;;;25.74;39.19
23619;BME280;18207;32.078;34.818;2024-01-16T12:00:00;101614.22;;;25.72;39.15
23619;BME280;18207;32.078;34.818;2024-01-16T12:02:51;101613.75;;;25.70;38.93
23619;BME280;18207;32.078;34.818;2024-01-16T12:05:22;101604.00;;;25.68;39.12
23619;BME280;18207;32.078;34.818;2024-01-16T12:07:53;101606.81;;;25.68;39.09
23619;BME280;18207;32.078;34.818;2024-01-16T12:10:25;101608.00;;;25.67;38.98
23619;BME280;18207;32.078;34.818;2024-01-16T12:12:59;101611.97;;;25.66;39.15
23619;BME280;18207;32.078;34.818;2024-01-16T12:15:32;101603.91;;;25.64;39.20
23619;BME280;18207;32.078;34.818;2024-01-16T12:18:04;101609.53;;;25.64;39.29
23619;BME280;18207;32.078;34.818;2024-01-16T12:20:46;101613.84;;;25.62;39.21
23619;BME280;18207;32.078;34.818;2024-01-16T12:23:16;101600.94;;;25.61;39.29
23619;BME280;18207;32.078;34.818;2024-01-16T12:25:46;101613.38;;;25.60;39.22
23619;BME280;18207;32.078;34.818;2024-01-16T12:28:30;101614.56;;;25.59;39.18
23619;BME280;18207;32.078;34.818;2024-01-16T12:31:01;101608.09;;;25.58;39.21
23619;BME280;18207;32.078;34.818;2024-01-16T12:33:33;101616.88;;;25.57;39.56
23619;BME280;18207;32.078;34.818;2024-01-16T12:36:03;101608.78;;;25.55;39.09
23619;BME280;18207;32.078;34.818;2024-01-16T12:38:33;101611.59;;;25.55;39.02
23619;BME280;18207;32.078;34.818;2024-01-16T12:41:11;101622.03;;;25.55;38.98
23619;BME280;18207;32.078;34.818;2024-01-16T12:43:43;101617.94;;;25.52;38.92
23619;BME280;18207;32.078;34.818;2024-01-16T12:46:21;101619.91;;;25.52;39.11
23619;BME280;18207;32.078;34.818;2024-01-16T12:48:59;101627.56;;;25.51;39.02
23619;BME280;18207;32.078;34.818;2024-01-16T12:51:33;101625.09;;;25.50;39.15
23619;BME280;18207;32.078;34.818;2024-01-16T12:54:14;101620.63;;;25.49;39.20
23619;BME280;18207;32.078;34.818;2024-01-16T12:56:44;101624.94;;;25.46;39.09
23619;BME280;18207;32.078;34.818;2024-01-16T12:59:15;101625.78;;;25.47;38.85
23619;BME280;18207;32.078;34.818;2024-01-16T13:01:46;101621.69;;;25.44;39.14
23619;BME280;18207;32.078;34.818;2024-01-16T13:04:18;101618.03;;;25.44;38.80